createdAt,value
2018-10-05T00:02:18.618Z,16.63
2018-10-05T00:04:46.607Z,18.60
2018-10-05T00:07:14.567Z,16.80
2018-10-05T00:09:42.486Z,14.23
2018-10-05T00:12:11.389Z,14.93
2018-10-05T00:14:39.204Z,18.10
2018-10-05T00:17:07.126Z,21.67
2018-10-05T00:19:36.002Z,22.13
2018-10-05T00:22:05.945Z,20.10
2018-10-05T00:24:33.772Z,18.70
2018-10-05T00:27:02.669Z,17.53
2018-10-05T00:29:30.541Z,15.90
2018-10-05T00:31:59.442Z,15.13
2018-10-05T00:34:28.475Z,18.40
2018-10-05T00:36:56.422Z,17.70
2018-10-05T00:39:24.355Z,20.83
2018-10-05T00:41:52.249Z,17.27
2018-10-05T00:44:21.180Z,16.57
2018-10-05T00:46:49.099Z,17.60
2018-10-05T00:49:16.959Z,16.27
2018-10-05T00:51:44.844Z,18.70
2018-10-05T00:54:17.825Z,23.40
2018-10-05T00:56:45.822Z,17.77
2018-10-05T00:59:13.738Z,19.30
2018-10-05T01:01:43.671Z,15.07
2018-10-05T01:04:11.569Z,17.90
2018-10-05T01:06:39.476Z,16.07
2018-10-05T01:09:08.786Z,14.87
2018-10-05T01:11:36.779Z,18.87
2018-10-05T01:14:04.726Z,14.70
2018-10-05T01:16:32.783Z,19.60
2018-10-05T01:19:00.761Z,14.23
2018-10-05T01:21:30.696Z,18.50
2018-10-05T01:23:58.629Z,17.20
2018-10-05T01:26:27.822Z,16.57
2018-10-05T01:28:55.749Z,18.47
2018-10-05T01:31:23.677Z,16.17
2018-10-05T01:33:55.118Z,14.37
2018-10-05T01:36:22.988Z,16.40
2018-10-05T01:38:50.954Z,17.20
2018-10-05T01:41:18.841Z,18.37
2018-10-05T01:43:46.770Z,14.33
2018-10-05T01:46:14.669Z,18.97
2018-10-05T01:48:44.675Z,18.20
2018-10-05T01:51:12.609Z,15.83
2018-10-05T01:53:40.550Z,22.07
2018-10-05T01:56:08.445Z,17.00
2018-10-05T01:58:36.326Z,15.70
2018-10-05T02:01:04.717Z,12.87
2018-10-05T02:03:33.666Z,18.47
2018-10-05T02:06:02.570Z,15.43
2018-10-05T02:08:30.587Z,24.37
2018-10-05T02:11:00.524Z,19.30
2018-10-05T02:13:28.418Z,12.77
2018-10-05T02:15:57.329Z,19.83
2018-10-05T02:18:25.290Z,15.90
2018-10-05T02:20:54.225Z,17.40
2018-10-05T02:23:23.132Z,13.17
2018-10-05T02:25:52.990Z,16.93
2018-10-05T02:28:21.925Z,16.77
2018-10-05T02:30:49.810Z,17.70
2018-10-05T02:33:18.683Z,16.77
2018-10-05T02:35:50.888Z,15.60
2018-10-05T02:38:18.956Z,25.37
2018-10-05T02:40:46.880Z,16.50
2018-10-05T02:43:14.786Z,19.37
2018-10-05T02:45:43.663Z,17.13
2018-10-05T02:48:13.553Z,20.20
2018-10-05T02:50:42.497Z,20.70
2018-10-05T02:53:10.487Z,17.83
2018-10-05T02:55:38.381Z,20.70
2018-10-05T02:58:07.282Z,15.33
2018-10-05T03:00:41.908Z,15.10
2018-10-05T03:03:09.784Z,20.37
2018-10-05T03:05:38.701Z,14.63
2018-10-05T03:08:06.628Z,19.80
2018-10-05T03:10:39.613Z,21.47
2018-10-05T03:13:08.575Z,20.90
2018-10-05T03:15:38.493Z,19.77
2018-10-05T03:18:07.451Z,18.20
2018-10-05T03:20:37.353Z,22.97
2018-10-05T03:23:05.226Z,18.70
2018-10-05T03:25:35.152Z,19.47
2018-10-05T03:28:04.066Z,19.23
2018-10-05T03:30:31.960Z,22.03
2018-10-05T03:32:59.858Z,19.60
2018-10-05T03:35:28.696Z,20.83
2018-10-05T03:37:57.637Z,17.60
2018-10-05T03:40:26.552Z,19.40
2018-10-05T03:42:54.445Z,19.27
2018-10-05T03:45:22.381Z,22.23
2018-10-05T03:47:50.353Z,24.10
2018-10-05T03:50:18.288Z,20.60
2018-10-05T03:52:47.192Z,19.23
2018-10-05T03:55:15.044Z,18.77
2018-10-05T03:57:43.959Z,19.80
2018-10-05T04:00:13.878Z,21.00
2018-10-05T04:02:42.724Z,18.83
2018-10-05T04:05:11.618Z,21.33
2018-10-05T04:07:39.488Z,24.27
2018-10-05T04:10:07.367Z,19.90
2018-10-05T04:12:36.277Z,19.63
2018-10-05T04:15:04.200Z,19.77
2018-10-05T04:17:32.079Z,15.93
2018-10-05T04:19:59.990Z,21.53
2018-10-05T04:22:30.452Z,17.37
2018-10-05T04:24:58.467Z,16.13
2018-10-05T04:27:28.376Z,16.70
2018-10-05T04:29:56.765Z,18.40
2018-10-05T04:32:24.755Z,15.03
2018-10-05T04:34:52.729Z,18.43
2018-10-05T04:37:20.652Z,20.97
2018-10-05T04:39:48.661Z,20.53
2018-10-05T04:42:16.613Z,17.83
2018-10-05T04:44:44.437Z,15.10
2018-10-05T04:47:12.311Z,14.97
2018-10-05T04:49:41.261Z,15.13
2018-10-05T04:52:09.173Z,15.23
2018-10-05T04:54:38.061Z,15.10
2018-10-05T04:57:07.037Z,23.20
2018-10-05T04:59:35.937Z,20.20
2018-10-05T05:02:04.901Z,17.27
2018-10-05T05:04:33.240Z,21.67
2018-10-05T05:07:02.133Z,17.27
2018-10-05T05:09:31.018Z,19.40
2018-10-05T05:12:00.976Z,16.77
2018-10-05T05:14:28.926Z,18.90
2018-10-05T05:16:57.784Z,16.40
2018-10-05T05:19:25.758Z,17.67
2018-10-05T05:21:53.653Z,18.67
2018-10-05T05:24:21.608Z,16.97
2018-10-05T05:26:50.483Z,17.03
2018-10-05T05:29:18.405Z,16.60
2018-10-05T05:31:46.312Z,18.37
2018-10-05T05:34:14.194Z,23.63
2018-10-05T05:36:42.064Z,14.77
2018-10-05T05:39:10.942Z,18.77
2018-10-05T05:41:38.812Z,20.13
2018-10-05T05:44:08.718Z,25.50
2018-10-05T05:46:37.647Z,18.13
2018-10-05T05:49:05.612Z,22.30
2018-10-05T05:51:33.596Z,21.80
2018-10-05T05:54:02.487Z,18.87
2018-10-05T05:56:31.390Z,20.43
2018-10-05T05:59:00.193Z,23.57
2018-10-05T06:01:28.092Z,16.43
2018-10-05T06:03:58.030Z,15.07
2018-10-05T06:06:26.911Z,17.00
2018-10-05T06:08:54.820Z,17.10
2018-10-05T06:11:22.808Z,13.20
2018-10-05T06:13:50.746Z,16.20
2018-10-05T06:16:20.689Z,15.60
2018-10-05T06:18:48.464Z,22.20
2018-10-05T06:21:22.383Z,14.40
2018-10-05T06:23:50.261Z,16.73
2018-10-05T06:26:19.181Z,19.23
2018-10-05T06:28:48.033Z,17.67
2018-10-05T06:31:15.995Z,19.33
2018-10-05T06:33:43.856Z,16.80
2018-10-05T06:37:16.910Z,16.40
2018-10-05T06:39:45.757Z,18.77
2018-10-05T06:42:15.789Z,18.10
2018-10-05T06:44:48.540Z,14.20
2018-10-05T06:47:16.420Z,17.23
2018-10-05T06:49:45.358Z,15.93
2018-10-05T06:52:14.211Z,16.20
2018-10-05T06:54:45.658Z,17.63
2018-10-05T06:57:15.621Z,13.90
2018-10-05T06:59:44.463Z,13.00
2018-10-05T07:02:13.326Z,14.10
2018-10-05T07:04:42.289Z,18.13
2018-10-05T07:07:10.219Z,23.53
2018-10-05T07:09:38.130Z,11.80
2018-10-05T07:12:06.983Z,13.77
2018-10-05T07:14:34.837Z,13.50
2018-10-05T07:17:03.797Z,18.57
2018-10-05T07:19:31.667Z,15.53
2018-10-05T07:21:59.579Z,17.67
2018-10-05T07:24:27.503Z,16.47
2018-10-05T07:26:55.457Z,13.97
2018-10-05T07:29:23.333Z,13.50
2018-10-05T07:31:51.257Z,18.13
2018-10-05T07:34:19.114Z,19.60
2018-10-05T07:36:47.069Z,10.40
2018-10-05T07:39:14.974Z,12.03
2018-10-05T07:41:42.942Z,12.63
2018-10-05T07:44:10.845Z,15.03
2018-10-05T07:46:39.014Z,12.30
2018-10-05T07:49:06.932Z,20.30
2018-10-05T07:51:34.786Z,13.67
2018-10-05T07:54:02.722Z,11.10
2018-10-05T07:56:30.655Z,10.13
2018-10-05T07:58:58.624Z,18.97
2018-10-05T08:01:26.489Z,11.43
2018-10-05T08:03:54.373Z,11.50
2018-10-05T08:06:22.323Z,13.03
2018-10-05T08:08:50.229Z,19.33
2018-10-05T08:11:18.113Z,13.37
2018-10-05T08:13:46.037Z,12.30
2018-10-05T08:16:14.002Z,11.47
2018-10-05T08:18:41.946Z,15.63
2018-10-05T08:21:09.863Z,16.73
2018-10-05T08:23:37.717Z,14.10
2018-10-05T08:26:05.859Z,16.80
2018-10-05T08:28:33.718Z,14.90
2018-10-05T08:31:02.613Z,12.93
2018-10-05T08:33:30.566Z,14.97
2018-10-05T08:35:58.437Z,12.10
2018-10-05T08:38:26.358Z,12.07
2018-10-05T08:40:54.194Z,10.57
2018-10-05T08:43:22.142Z,17.10
2018-10-05T08:45:50.165Z,11.77
2018-10-05T08:48:18.100Z,13.80
2018-10-05T08:50:45.942Z,14.40
2018-10-05T08:53:13.842Z,12.70
2018-10-05T08:55:41.705Z,13.67
2018-10-05T08:58:09.557Z,9.40
2018-10-05T09:00:38.533Z,13.50
2018-10-05T09:03:06.396Z,7.67
2018-10-05T09:05:34.289Z,11.27
2018-10-05T09:08:02.175Z,13.13
2018-10-05T09:10:30.091Z,13.43
2018-10-05T09:12:58.040Z,8.40
2018-10-05T09:15:25.976Z,9.87
2018-10-05T09:17:53.961Z,11.23
2018-10-05T09:20:21.776Z,8.70
2018-10-05T09:22:49.705Z,12.80
2018-10-05T09:25:17.606Z,13.83
2018-10-05T09:27:45.464Z,13.33
2018-10-05T09:30:13.340Z,12.00
2018-10-05T09:32:41.227Z,7.00
2018-10-05T09:35:09.110Z,6.43
2018-10-05T09:37:37.005Z,12.23
2018-10-05T09:40:04.912Z,11.07
2018-10-05T09:42:32.764Z,17.93
2018-10-05T09:45:00.730Z,7.40
2018-10-05T09:47:28.564Z,8.30
2018-10-05T09:49:56.582Z,8.20
2018-10-05T09:52:24.535Z,9.83
2018-10-05T09:54:52.385Z,15.50
2018-10-05T09:57:20.352Z,11.30
2018-10-05T09:59:48.287Z,6.97
2018-10-05T10:02:23.384Z,12.67
2018-10-05T10:04:51.265Z,12.00
2018-10-05T10:07:19.178Z,7.63
2018-10-05T10:09:47.161Z,12.87
2018-10-05T10:12:15.078Z,12.23
2018-10-05T10:14:42.957Z,10.50
2018-10-05T10:17:10.974Z,14.13
2018-10-05T10:19:39.855Z,6.80
2018-10-05T10:22:07.766Z,8.77
2018-10-05T10:24:35.681Z,6.70
2018-10-05T10:27:03.892Z,8.17
2018-10-05T10:29:31.762Z,11.73
2018-10-05T10:31:59.677Z,6.60
2018-10-05T10:34:27.746Z,7.70
2018-10-05T10:36:55.590Z,8.87
2018-10-05T10:39:23.493Z,7.77
2018-10-05T10:41:51.433Z,8.80
2018-10-05T10:44:19.303Z,7.40
2018-10-05T10:46:47.197Z,9.40
2018-10-05T10:49:15.113Z,8.50
2018-10-05T10:51:42.977Z,12.03
2018-10-05T10:54:10.932Z,10.80
2018-10-05T10:56:38.729Z,10.30
2018-10-05T10:59:06.594Z,9.33
2018-10-05T11:01:34.520Z,7.43
2018-10-05T11:04:02.402Z,9.30
2018-10-05T11:06:30.272Z,8.90
2018-10-05T11:08:58.208Z,8.80
2018-10-05T11:11:26.182Z,8.13
2018-10-05T11:13:54.159Z,7.40
2018-10-05T11:16:22.060Z,7.33
2018-10-05T11:18:49.995Z,5.33
2018-10-05T11:21:17.915Z,7.37
2018-10-05T11:23:45.799Z,6.33
2018-10-05T11:26:13.749Z,9.87
2018-10-05T11:28:41.596Z,9.73
2018-10-05T11:31:09.440Z,13.10
2018-10-05T11:33:37.352Z,9.97
2018-10-05T11:36:05.313Z,6.33
2018-10-05T11:38:33.202Z,8.80
2018-10-05T11:41:01.081Z,16.03
2018-10-05T11:43:29.016Z,9.90
2018-10-05T11:45:56.869Z,13.43
2018-10-05T11:48:24.771Z,11.50
2018-10-05T11:50:52.777Z,8.30
2018-10-05T11:53:20.693Z,9.33
2018-10-05T11:55:49.565Z,11.93
2018-10-05T11:58:17.442Z,8.17
2018-10-05T12:00:45.281Z,9.43
2018-10-05T12:03:13.181Z,9.70
2018-10-05T12:05:41.061Z,7.27
2018-10-05T12:08:08.925Z,8.83
2018-10-05T12:10:36.746Z,13.60
2018-10-05T12:13:04.672Z,8.80
2018-10-05T12:15:32.542Z,10.77
2018-10-05T12:18:00.485Z,7.13
2018-10-05T12:20:28.341Z,9.17
2018-10-05T12:22:56.245Z,7.80
2018-10-05T12:25:24.229Z,7.07
2018-10-05T12:27:52.149Z,7.73
2018-10-05T12:30:20.002Z,7.13
2018-10-05T12:32:47.908Z,10.33
2018-10-05T12:35:15.857Z,9.87
2018-10-05T12:37:43.691Z,8.10
2018-10-05T12:40:11.605Z,6.10
2018-10-05T12:45:06.701Z,8.70
2018-10-05T13:46:26.501Z,6.50
2018-10-05T14:47:46.244Z,8.60
2018-10-05T14:50:14.139Z,7.20
2018-10-05T14:52:42.042Z,9.00
2018-10-05T14:55:10.014Z,5.40
2018-10-05T14:57:37.984Z,5.80
2018-10-05T15:00:05.830Z,8.67
2018-10-05T15:02:33.748Z,8.63
2018-10-05T15:05:01.669Z,6.10
2018-10-05T15:07:29.604Z,5.60
2018-10-05T15:09:57.529Z,9.03
2018-10-05T15:12:25.597Z,8.07
2018-10-05T15:14:53.468Z,4.77
2018-10-05T16:28:28.376Z,8.37
2018-10-05T16:30:56.279Z,13.17
2018-10-05T16:33:24.600Z,9.87
2018-10-05T16:35:52.500Z,11.13
2018-10-05T16:38:20.426Z,10.50
2018-10-05T16:40:48.372Z,11.03
2018-10-05T16:43:16.294Z,8.53
2018-10-05T16:45:44.186Z,8.63
2018-10-05T16:48:12.060Z,10.70
2018-10-05T16:50:39.958Z,10.40
2018-10-05T16:53:07.792Z,9.07
2018-10-05T16:55:35.636Z,9.00
2018-10-05T17:17:42.114Z,13.20
2018-10-05T17:20:10.050Z,16.10
2018-10-05T17:22:37.995Z,13.30
2018-10-05T17:25:05.883Z,17.80
2018-10-05T17:27:33.728Z,14.13
2018-10-05T17:30:01.619Z,16.00
2018-10-05T17:32:29.444Z,13.80
2018-10-05T17:34:57.398Z,14.70
2018-10-05T17:37:25.326Z,16.60
2018-10-05T17:39:53.272Z,22.87
2018-10-05T17:42:21.141Z,16.87
2018-10-05T17:44:49.054Z,20.30
2018-10-05T17:47:16.908Z,15.43
2018-10-05T17:49:44.858Z,17.27
2018-10-05T17:52:12.954Z,18.73
2018-10-05T17:54:40.780Z,17.63
2018-10-05T17:57:08.608Z,13.60
2018-10-05T17:59:36.565Z,14.83
2018-10-05T18:02:04.620Z,14.50
2018-10-05T18:04:32.554Z,14.40
2018-10-05T18:07:00.429Z,11.87
2018-10-05T18:09:28.302Z,14.63
2018-10-05T18:11:56.182Z,19.80
2018-10-05T18:14:24.104Z,18.83
2018-10-05T18:16:51.975Z,17.30
2018-10-05T18:19:19.857Z,17.20
2018-10-05T18:21:47.758Z,18.20
2018-10-05T18:24:15.649Z,19.30
2018-10-05T18:26:43.518Z,18.27
2018-10-05T18:29:11.513Z,15.63
2018-10-05T18:31:39.393Z,19.13
2018-10-05T18:34:07.387Z,19.23
2018-10-05T18:36:35.236Z,18.40
2018-10-05T18:39:04.390Z,17.53
2018-10-05T18:41:32.260Z,19.10
2018-10-05T18:44:00.190Z,20.53
2018-10-05T18:46:28.155Z,19.20
2018-10-05T18:48:56.069Z,23.80
2018-10-05T18:51:24.001Z,27.00
2018-10-05T18:53:51.989Z,27.10
2018-10-05T18:56:25.619Z,22.47
2018-10-05T18:58:53.496Z,19.17
2018-10-05T19:01:21.389Z,19.97
2018-10-05T19:03:49.245Z,19.43
2018-10-05T19:06:17.133Z,24.50
2018-10-05T19:08:45.071Z,22.47
2018-10-05T19:11:12.997Z,31.67
2018-10-05T19:13:41.016Z,19.47
2018-10-05T19:16:09.818Z,26.00
2018-10-05T19:18:37.792Z,28.60
2018-10-05T19:21:05.739Z,23.60
2018-10-05T19:23:33.627Z,23.40
2018-10-05T19:26:01.588Z,22.33
2018-10-05T19:28:29.425Z,23.90
2018-10-05T19:30:57.349Z,20.63
2018-10-05T19:33:25.278Z,26.03
2018-10-05T19:35:53.178Z,20.70
2018-10-05T19:38:21.130Z,22.57
2018-10-05T19:40:49.082Z,20.00
2018-10-05T19:43:16.946Z,23.33
2018-10-05T19:45:44.867Z,19.33
2018-10-05T19:48:12.756Z,23.07
2018-10-05T19:50:40.764Z,19.43
2018-10-05T19:53:08.651Z,24.70
2018-10-05T19:55:36.491Z,24.50
2018-10-05T19:58:04.341Z,27.23
2018-10-05T20:00:32.189Z,22.40
2018-10-05T20:03:00.080Z,23.30
2018-10-05T20:05:27.961Z,29.90
2018-10-05T20:07:55.844Z,22.83
2018-10-05T20:10:24.725Z,23.57
2018-10-05T20:12:52.626Z,21.00
2018-10-05T20:15:20.589Z,20.53
2018-10-05T20:17:48.524Z,26.43
2018-10-05T20:20:16.280Z,30.67
2018-10-05T20:22:44.185Z,21.73
2018-10-05T20:25:12.100Z,25.70
2018-10-05T20:27:40.040Z,22.60
2018-10-05T20:30:08.547Z,21.43
2018-10-05T20:32:36.503Z,21.30
2018-10-05T20:35:04.419Z,23.17
2018-10-05T20:37:32.597Z,25.53
2018-10-05T20:40:00.394Z,30.83
2018-10-05T20:42:28.302Z,24.83
2018-10-05T20:44:56.189Z,30.43
2018-10-05T20:47:24.132Z,26.73
2018-10-05T20:49:52.397Z,29.37
2018-10-05T20:52:20.347Z,27.00
2018-10-05T20:54:48.226Z,26.57
2018-10-05T20:57:16.096Z,26.10
2018-10-05T20:59:44.009Z,25.93
2018-10-05T21:02:11.892Z,24.07
2018-10-05T21:04:39.837Z,30.77
2018-10-05T21:07:07.722Z,26.23
2018-10-05T21:09:35.790Z,21.43
2018-10-05T21:12:03.601Z,20.47
2018-10-05T21:14:31.493Z,26.67
2018-10-05T21:16:59.382Z,28.73
2018-10-05T21:19:27.208Z,23.47
2018-10-05T21:21:55.084Z,23.23
2018-10-05T21:24:22.932Z,25.50
2018-10-05T21:26:50.817Z,25.30
2018-10-05T21:29:18.773Z,23.87
2018-10-05T21:31:46.648Z,25.53
2018-10-05T21:34:14.500Z,24.20
2018-10-05T21:36:42.381Z,25.20
2018-10-05T21:39:11.214Z,23.13
2018-10-05T21:41:39.184Z,21.57
2018-10-05T21:44:07.122Z,23.67
2018-10-05T21:46:34.977Z,20.40
2018-10-05T21:49:02.920Z,20.30
2018-10-05T21:51:30.816Z,20.70
2018-10-05T21:53:58.725Z,18.97
2018-10-05T21:56:26.608Z,20.70
2018-10-05T21:58:54.578Z,21.60
2018-10-05T22:01:22.429Z,20.57
2018-10-05T22:03:51.250Z,25.03
2018-10-05T22:06:19.517Z,22.40
2018-10-05T22:08:47.498Z,24.63
2018-10-05T22:11:15.582Z,22.10
2018-10-05T22:13:43.830Z,23.03
2018-10-05T22:16:11.887Z,28.57
2018-10-05T22:18:39.841Z,21.97
2018-10-05T22:21:08.177Z,21.73
2018-10-05T22:23:36.120Z,20.93
2018-10-05T22:26:04.195Z,19.77
2018-10-05T22:28:32.101Z,20.70
2018-10-05T22:31:00.033Z,27.67
2018-10-05T22:33:27.921Z,24.13
2018-10-05T22:35:55.813Z,20.53
2018-10-05T22:38:23.712Z,27.50
2018-10-05T22:40:51.641Z,25.20
2018-10-05T22:43:19.553Z,25.60
2018-10-05T22:45:47.467Z,25.43
2018-10-05T22:48:15.365Z,23.47
2018-10-05T22:50:43.217Z,22.30
2018-10-05T22:53:11.075Z,23.30
2018-10-05T22:55:38.944Z,20.90
2018-10-05T23:00:34.992Z,23.23
2018-10-05T23:03:02.848Z,26.65
2018-10-05T23:05:30.700Z,17.55
2018-10-05T23:07:58.548Z,21.75
2018-10-05T23:22:41.776Z,18.30
2018-10-05T23:27:36.717Z,20.80
2018-10-05T23:49:41.364Z,23.03
2018-10-05T23:59:30.617Z,21.55
